sensor_id;sensor_type;location;lat;lon;timestamp;P1;durP1;ratioP1;P2;durP2;ratioP2
52974;SDS011;38839;45.186;5.720;2023-02-28T05:51:02;9.82;;;6.35;;
52974;SDS011;38839;45.186;5.720;2023-02-28T05:53:28;12.98;;;6.07;;
52974;SDS011;38839;45.186;5.720;2023-02-28T05:55:54;7.60;;;5.63;;
52974;SDS011;38839;45.186;5.720;2023-02-28T05:58:19;10.38;;;6.22;;
52974;SDS011;38839;45.186;5.720;2023-02-28T06:00:45;9.80;;;6.00;;
52974;SDS011;38839;45.186;5.720;2023-02-28T06:03:10;9.35;;;6.35;;
52974;SDS011;38839;45.186;5.720;2023-02-28T06:05:36;8.98;;;5.93;;
52974;SDS011;38839;45.186;5.720;2023-02-28T06:08:01;10.30;;;6.40;;
52974;SDS011;38839;45.186;5.720;2023-02-28T06:10:26;8.85;;;6.22;;
52974;SDS011;38839;45.186;5.720;2023-02-28T06:12:52;9.85;;;6.60;;
52974;SDS011;38839;45.186;5.720;2023-02-28T06:15:17;9.27;;;6.75;;
52974;SDS011;38839;45.186;5.720;2023-02-28T06:17:43;8.23;;;5.97;;
52974;SDS011;38839;45.186;5.720;2023-02-28T06:20:10;8.93;;;6.35;;
52974;SDS011;38839;45.186;5.720;2023-02-28T06:22:37;9.90;;;6.43;;
52974;SDS011;38839;45.186;5.720;2023-02-28T06:25:04;10.13;;;7.30;;
52974;SDS011;38839;45.186;5.720;2023-02-28T06:27:31;8.75;;;6.32;;
52974;SDS011;38839;45.186;5.720;2023-02-28T06:29:57;8.68;;;6.22;;
52974;SDS011;38839;45.186;5.720;2023-02-28T06:32:22;8.77;;;5.85;;
52974;SDS011;38839;45.186;5.720;2023-02-28T06:34:48;8.18;;;6.18;;
52974;SDS011;38839;45.186;5.720;2023-02-28T06:37:13;9.20;;;5.70;;
52974;SDS011;38839;45.186;5.720;2023-02-28T06:39:39;9.68;;;6.47;;
52974;SDS011;38839;45.186;5.720;2023-02-28T06:42:05;11.13;;;6.38;;
52974;SDS011;38839;45.186;5.720;2023-02-28T06:44:30;9.02;;;6.50;;
52974;SDS011;38839;45.186;5.720;2023-02-28T06:47:00;9.35;;;6.53;;
52974;SDS011;38839;45.186;5.720;2023-02-28T06:49:30;11.23;;;6.00;;
52974;SDS011;38839;45.186;5.720;2023-02-28T06:51:56;12.18;;;6.78;;
52974;SDS011;38839;45.186;5.720;2023-02-28T06:54:22;10.57;;;6.80;;
52974;SDS011;38839;45.186;5.720;2023-02-28T06:56:47;7.20;;;5.60;;
52974;SDS011;38839;45.186;5.720;2023-02-28T06:59:13;8.35;;;6.18;;
52974;SDS011;38839;45.186;5.720;2023-02-28T07:01:39;8.18;;;6.35;;
52974;SDS011;38839;45.186;5.720;2023-02-28T07:04:05;8.65;;;5.65;;
52974;SDS011;38839;45.186;5.720;2023-02-28T07:06:31;9.60;;;6.47;;
52974;SDS011;38839;45.186;5.720;2023-02-28T07:08:56;8.43;;;6.32;;
52974;SDS011;38839;45.186;5.720;2023-02-28T07:11:23;10.48;;;6.10;;
52974;SDS011;38839;45.186;5.720;2023-02-28T07:13:51;9.18;;;6.13;;
52974;SDS011;38839;45.186;5.720;2023-02-28T07:16:21;11.25;;;6.70;;
52974;SDS011;38839;45.186;5.720;2023-02-28T07:18:47;10.13;;;5.95;;
52974;SDS011;38839;45.186;5.720;2023-02-28T07:21:13;8.73;;;6.43;;
52974;SDS011;38839;45.186;5.720;2023-02-28T07:23:39;7.90;;;5.53;;
52974;SDS011;38839;45.186;5.720;2023-02-28T07:26:05;10.35;;;6.75;;
52974;SDS011;38839;45.186;5.720;2023-02-28T07:28:31;10.00;;;6.53;;
52974;SDS011;38839;45.186;5.720;2023-02-28T07:31:03;9.85;;;6.10;;
52974;SDS011;38839;45.186;5.720;2023-02-28T07:36:00;11.20;;;7.03;;
52974;SDS011;38839;45.186;5.720;2023-02-28T07:38:29;8.68;;;6.18;;
52974;SDS011;38839;45.186;5.720;2023-02-28T07:40:54;10.18;;;6.25;;
52974;SDS011;38839;45.186;5.720;2023-02-28T07:43:20;8.75;;;5.57;;
52974;SDS011;38839;45.186;5.720;2023-02-28T07:45:45;7.45;;;5.82;;
52974;SDS011;38839;45.186;5.720;2023-02-28T07:48:10;11.32;;;6.68;;
52974;SDS011;38839;45.186;5.720;2023-02-28T07:50:36;8.20;;;6.00;;
52974;SDS011;38839;45.186;5.720;2023-02-28T07:53:01;12.32;;;6.55;;
52974;SDS011;38839;45.186;5.720;2023-02-28T07:55:27;10.13;;;6.30;;
52974;SDS011;38839;45.186;5.720;2023-02-28T07:57:52;8.00;;;6.18;;
52974;SDS011;38839;45.186;5.720;2023-02-28T08:00:18;8.95;;;7.00;;
52974;SDS011;38839;45.186;5.720;2023-02-28T08:02:43;8.85;;;5.60;;
52974;SDS011;38839;45.186;5.720;2023-02-28T08:05:09;7.90;;;5.70;;
52974;SDS011;38839;45.186;5.720;2023-02-28T08:07:34;12.40;;;5.97;;
52974;SDS011;38839;45.186;5.720;2023-02-28T08:10:00;10.73;;;6.03;;
52974;SDS011;38839;45.186;5.720;2023-02-28T08:12:25;9.38;;;6.15;;
52974;SDS011;38839;45.186;5.720;2023-02-28T08:14:51;7.30;;;5.20;;
52974;SDS011;38839;45.186;5.720;2023-02-28T08:17:16;6.80;;;5.55;;
52974;SDS011;38839;45.186;5.720;2023-02-28T08:19:44;8.65;;;6.30;;
52974;SDS011;38839;45.186;5.720;2023-02-28T08:22:10;8.32;;;6.00;;
52974;SDS011;38839;45.186;5.720;2023-02-28T08:24:36;11.15;;;6.13;;
52974;SDS011;38839;45.186;5.720;2023-02-28T08:27:01;9.93;;;5.93;;
52974;SDS011;38839;45.186;5.720;2023-02-28T08:29:27;9.63;;;6.10;;
52974;SDS011;38839;45.186;5.720;2023-02-28T08:31:52;7.35;;;5.80;;
52974;SDS011;38839;45.186;5.720;2023-02-28T08:34:18;7.95;;;5.88;;
52974;SDS011;38839;45.186;5.720;2023-02-28T08:36:43;11.15;;;6.97;;
52974;SDS011;38839;45.186;5.720;2023-02-28T08:39:12;10.82;;;6.43;;
52974;SDS011;38839;45.186;5.720;2023-02-28T08:41:37;8.77;;;6.53;;
52974;SDS011;38839;45.186;5.720;2023-02-28T08:44:03;10.07;;;6.57;;
52974;SDS011;38839;45.186;5.720;2023-02-28T08:46:28;9.02;;;6.03;;
52974;SDS011;38839;45.186;5.720;2023-02-28T08:48:54;8.65;;;6.50;;
52974;SDS011;38839;45.186;5.720;2023-02-28T08:51:21;7.35;;;5.93;;
52974;SDS011;38839;45.186;5.720;2023-02-28T08:53:51;10.73;;;6.47;;
52974;SDS011;38839;45.186;5.720;2023-02-28T08:56:18;8.48;;;6.43;;
52974;SDS011;38839;45.186;5.720;2023-02-28T08:58:44;9.43;;;6.80;;
52974;SDS011;38839;45.186;5.720;2023-02-28T09:01:21;9.05;;;6.10;;
52974;SDS011;38839;45.186;5.720;2023-02-28T09:03:48;8.68;;;6.22;;
52974;SDS011;38839;45.186;5.720;2023-02-28T09:06:15;10.05;;;6.78;;
52974;SDS011;38839;45.186;5.720;2023-02-28T09:08:42;7.85;;;6.07;;
52974;SDS011;38839;45.186;5.720;2023-02-28T09:11:08;10.45;;;6.88;;
52974;SDS011;38839;45.186;5.720;2023-02-28T09:13:34;8.23;;;6.63;;
52974;SDS011;38839;45.186;5.720;2023-02-28T09:16:00;12.02;;;7.13;;
52974;SDS011;38839;45.186;5.720;2023-02-28T09:18:27;8.45;;;6.05;;
52974;SDS011;38839;45.186;5.720;2023-02-28T09:20:54;8.70;;;6.50;;
52974;SDS011;38839;45.186;5.720;2023-02-28T09:23:20;11.25;;;6.82;;
52974;SDS011;38839;45.186;5.720;2023-02-28T09:25:46;10.18;;;6.93;;
52974;SDS011;38839;45.186;5.720;2023-02-28T09:28:17;9.45;;;7.20;;
52974;SDS011;38839;45.186;5.720;2023-02-28T09:30:44;10.23;;;6.60;;
52974;SDS011;38839;45.186;5.720;2023-02-28T09:33:10;11.98;;;7.88;;
52974;SDS011;38839;45.186;5.720;2023-02-28T09:35:36;10.40;;;6.95;;
52974;SDS011;38839;45.186;5.720;2023-02-28T09:38:02;8.65;;;6.63;;
52974;SDS011;38839;45.186;5.720;2023-02-28T09:40:28;8.57;;;6.55;;
52974;SDS011;38839;45.186;5.720;2023-02-28T09:42:55;9.70;;;6.75;;
52974;SDS011;38839;45.186;5.720;2023-02-28T09:45:39;10.05;;;6.45;;
52974;SDS011;38839;45.186;5.720;2023-02-28T09:48:11;18.17;;;6.95;;
52974;SDS011;38839;45.186;5.720;2023-02-28T09:50:41;8.68;;;6.82;;
52974;SDS011;38839;45.186;5.720;2023-02-28T09:53:25;10.00;;;7.28;;
52974;SDS011;38839;45.186;5.720;2023-02-28T09:55:55;16.83;;;7.68;;
52974;SDS011;38839;45.186;5.720;2023-02-28T10:07:02;12.73;;;8.30;;
52974;SDS011;38839;45.186;5.720;2023-02-28T10:09:42;14.35;;;8.18;;
52974;SDS011;38839;45.186;5.720;2023-02-28T10:12:11;11.40;;;8.00;;
52974;SDS011;38839;45.186;5.720;2023-02-28T10:14:40;10.13;;;7.57;;
52974;SDS011;38839;45.186;5.720;2023-02-28T10:17:11;9.60;;;7.55;;
52974;SDS011;38839;45.186;5.720;2023-02-28T10:19:42;11.73;;;7.70;;
52974;SDS011;38839;45.186;5.720;2023-02-28T10:24:47;12.02;;;8.00;;
52974;SDS011;38839;45.186;5.720;2023-02-28T10:27:15;10.43;;;7.32;;
52974;SDS011;38839;45.186;5.720;2023-02-28T10:29:45;11.20;;;7.55;;
52974;SDS011;38839;45.186;5.720;2023-02-28T10:32:19;10.38;;;7.40;;
52974;SDS011;38839;45.186;5.720;2023-02-28T10:34:57;10.63;;;7.72;;
52974;SDS011;38839;45.186;5.720;2023-02-28T10:37:26;9.98;;;7.47;;
52974;SDS011;38839;45.186;5.720;2023-02-28T10:39:52;11.02;;;7.45;;
52974;SDS011;38839;45.186;5.720;2023-02-28T10:42:28;11.70;;;7.97;;
52974;SDS011;38839;45.186;5.720;2023-02-28T10:45:06;10.65;;;8.02;;
52974;SDS011;38839;45.186;5.720;2023-02-28T10:47:34;9.82;;;7.53;;
52974;SDS011;38839;45.186;5.720;2023-02-28T10:50:09;10.02;;;7.38;;
52974;SDS011;38839;45.186;5.720;2023-02-28T10:53:05;11.70;;;8.23;;
52974;SDS011;38839;45.186;5.720;2023-02-28T10:55:35;10.88;;;7.80;;
52974;SDS011;38839;45.186;5.720;2023-02-28T10:58:01;9.65;;;7.18;;
52974;SDS011;38839;45.186;5.720;2023-02-28T11:00:31;11.52;;;8.43;;
52974;SDS011;38839;45.186;5.720;2023-02-28T11:02:58;10.50;;;7.63;;
52974;SDS011;38839;45.186;5.720;2023-02-28T11:05:28;10.90;;;7.95;;
52974;SDS011;38839;45.186;5.720;2023-02-28T11:07:55;12.00;;;8.48;;
52974;SDS011;38839;45.186;5.720;2023-02-28T11:10:25;11.80;;;7.90;;
52974;SDS011;38839;45.186;5.720;2023-02-28T11:12:55;12.75;;;8.00;;
52974;SDS011;38839;45.186;5.720;2023-02-28T11:17:54;13.63;;;8.52;;
52974;SDS011;38839;45.186;5.720;2023-02-28T11:20:23;10.50;;;7.57;;
52974;SDS011;38839;45.186;5.720;2023-02-28T11:22:51;14.43;;;8.02;;
52974;SDS011;38839;45.186;5.720;2023-02-28T11:25:23;10.88;;;7.80;;
52974;SDS011;38839;45.186;5.720;2023-02-28T11:27:52;10.80;;;8.13;;
52974;SDS011;38839;45.186;5.720;2023-02-28T11:33:10;10.05;;;7.10;;
52974;SDS011;38839;45.186;5.720;2023-02-28T11:35:46;11.48;;;8.00;;
52974;SDS011;38839;45.186;5.720;2023-02-28T11:38:14;11.60;;;8.48;;
52974;SDS011;38839;45.186;5.720;2023-02-28T11:40:44;11.15;;;7.45;;
52974;SDS011;38839;45.186;5.720;2023-02-28T11:43:22;17.67;;;7.88;;
52974;SDS011;38839;45.186;5.720;2023-02-28T11:46:05;13.43;;;8.00;;
52974;SDS011;38839;45.186;5.720;2023-02-28T11:51:41;11.07;;;8.18;;
52974;SDS011;38839;45.186;5.720;2023-02-28T11:54:35;16.88;;;9.27;;
52974;SDS011;38839;45.186;5.720;2023-02-28T12:00:15;12.73;;;7.85;;
52974;SDS011;38839;45.186;5.720;2023-02-28T12:08:09;10.50;;;8.27;;
52974;SDS011;38839;45.186;5.720;2023-02-28T12:10:53;12.57;;;8.65;;
52974;SDS011;38839;45.186;5.720;2023-02-28T12:19:27;12.50;;;7.97;;
52974;SDS011;38839;45.186;5.720;2023-02-28T12:27:32;14.45;;;8.20;;
52974;SDS011;38839;45.186;5.720;2023-02-28T12:30:03;14.70;;;8.40;;
52974;SDS011;38839;45.186;5.720;2023-02-28T12:32:42;15.38;;;7.82;;
52974;SDS011;38839;45.186;5.720;2023-02-28T12:35:12;10.68;;;7.80;;
52974;SDS011;38839;45.186;5.720;2023-02-28T12:37:50;12.68;;;7.68;;
52974;SDS011;38839;45.186;5.720;2023-02-28T12:40:44;10.52;;;7.63;;
52974;SDS011;38839;45.186;5.720;2023-02-28T12:43:17;9.50;;;6.70;;
52974;SDS011;38839;45.186;5.720;2023-02-28T12:45:46;12.75;;;7.10;;
52974;SDS011;38839;45.186;5.720;2023-02-28T12:48:17;9.35;;;6.88;;
52974;SDS011;38839;45.186;5.720;2023-02-28T12:50:56;9.77;;;6.85;;
52974;SDS011;38839;45.186;5.720;2023-02-28T12:58:26;10.70;;;7.13;;
52974;SDS011;38839;45.186;5.720;2023-02-28T13:03:44;10.88;;;8.00;;
52974;SDS011;38839;45.186;5.720;2023-02-28T13:08:51;13.00;;;7.03;;
52974;SDS011;38839;45.186;5.720;2023-02-28T13:11:38;9.55;;;6.47;;
52974;SDS011;38839;45.186;5.720;2023-02-28T13:14:22;8.35;;;7.03;;
52974;SDS011;38839;45.186;5.720;2023-02-28T13:19:25;13.40;;;7.15;;
52974;SDS011;38839;45.186;5.720;2023-02-28T13:21:53;11.02;;;7.28;;
52974;SDS011;38839;45.186;5.720;2023-02-28T13:24:39;10.82;;;7.30;;
52974;SDS011;38839;45.186;5.720;2023-02-28T13:29:42;8.77;;;6.72;;
52974;SDS011;38839;45.186;5.720;2023-02-28T13:34:39;9.95;;;7.07;;
52974;SDS011;38839;45.186;5.720;2023-02-28T13:39:56;10.20;;;6.78;;
52974;SDS011;38839;45.186;5.720;2023-02-28T13:58:25;9.23;;;6.75;;
52974;SDS011;38839;45.186;5.720;2023-02-28T14:06:32;9.07;;;6.57;;
52974;SDS011;38839;45.186;5.720;2023-02-28T14:11:42;16.40;;;7.15;;
52974;SDS011;38839;45.186;5.720;2023-02-28T14:14:09;10.38;;;6.57;;
52974;SDS011;38839;45.186;5.720;2023-02-28T14:17:04;9.63;;;6.97;;
52974;SDS011;38839;45.186;5.720;2023-02-28T14:19:32;9.48;;;6.70;;
52974;SDS011;38839;45.186;5.720;2023-02-28T14:22:04;8.73;;;5.90;;
52974;SDS011;38839;45.186;5.720;2023-02-28T14:25:08;10.25;;;6.47;;
52974;SDS011;38839;45.186;5.720;2023-02-28T14:38:27;10.85;;;6.82;;
52974;SDS011;38839;45.186;5.720;2023-02-28T14:40:56;11.93;;;6.30;;
52974;SDS011;38839;45.186;5.720;2023-02-28T14:43:26;10.93;;;6.57;;
52974;SDS011;38839;45.186;5.720;2023-02-28T14:46:00;13.13;;;6.82;;
52974;SDS011;38839;45.186;5.720;2023-02-28T14:48:27;9.48;;;6.43;;
52974;SDS011;38839;45.186;5.720;2023-02-28T14:50:54;8.43;;;6.63;;
52974;SDS011;38839;45.186;5.720;2023-02-28T14:53:23;10.45;;;6.57;;
52974;SDS011;38839;45.186;5.720;2023-02-28T14:58:28;8.10;;;6.07;;
52974;SDS011;38839;45.186;5.720;2023-02-28T15:00:56;9.07;;;6.63;;
52974;SDS011;38839;45.186;5.720;2023-02-28T15:05:58;9.13;;;6.65;;
52974;SDS011;38839;45.186;5.720;2023-02-28T15:08:29;10.80;;;7.32;;
52974;SDS011;38839;45.186;5.720;2023-02-28T15:11:01;10.18;;;7.07;;
52974;SDS011;38839;45.186;5.720;2023-02-28T15:19:23;8.98;;;6.43;;
52974;SDS011;38839;45.186;5.720;2023-02-28T15:21:59;8.80;;;7.05;;
52974;SDS011;38839;45.186;5.720;2023-02-28T15:24:40;9.60;;;6.28;;
52974;SDS011;38839;45.186;5.720;2023-02-28T15:27:12;8.15;;;6.55;;
52974;SDS011;38839;45.186;5.720;2023-02-28T15:29:45;8.93;;;7.05;;
52974;SDS011;38839;45.186;5.720;2023-02-28T15:32:34;8.75;;;6.80;;
52974;SDS011;38839;45.186;5.720;2023-02-28T15:40:49;9.70;;;7.13;;
52974;SDS011;38839;45.186;5.720;2023-02-28T15:43:28;9.60;;;7.03;;
52974;SDS011;38839;45.186;5.720;2023-02-28T15:46:05;12.57;;;7.45;;
52974;SDS011;38839;45.186;5.720;2023-02-28T15:51:02;8.95;;;6.95;;
52974;SDS011;38839;45.186;5.720;2023-02-28T15:59:06;8.43;;;6.15;;
52974;SDS011;38839;45.186;5.720;2023-02-28T16:01:34;10.52;;;7.28;;
52974;SDS011;38839;45.186;5.720;2023-02-28T16:04:02;9.75;;;7.55;;
52974;SDS011;38839;45.186;5.720;2023-02-28T16:09:25;10.38;;;7.20;;
52974;SDS011;38839;45.186;5.720;2023-02-28T16:11:52;9.82;;;6.88;;
52974;SDS011;38839;45.186;5.720;2023-02-28T16:14:24;10.13;;;7.63;;
52974;SDS011;38839;45.186;5.720;2023-02-28T16:17:04;10.35;;;7.40;;
52974;SDS011;38839;45.186;5.720;2023-02-28T16:19:39;10.45;;;7.03;;
52974;SDS011;38839;45.186;5.720;2023-02-28T16:22:04;11.60;;;7.63;;
52974;SDS011;38839;45.186;5.720;2023-02-28T16:24:30;11.63;;;7.75;;
52974;SDS011;38839;45.186;5.720;2023-02-28T16:26:55;10.45;;;7.88;;
52974;SDS011;38839;45.186;5.720;2023-02-28T16:34:18;11.90;;;7.15;;
52974;SDS011;38839;45.186;5.720;2023-02-28T16:36:46;9.40;;;6.97;;
52974;SDS011;38839;45.186;5.720;2023-02-28T16:39:13;10.13;;;6.97;;
52974;SDS011;38839;45.186;5.720;2023-02-28T16:41:38;9.27;;;6.80;;
52974;SDS011;38839;45.186;5.720;2023-02-28T16:44:10;13.13;;;8.38;;
52974;SDS011;38839;45.186;5.720;2023-02-28T16:46:39;10.73;;;7.50;;
52974;SDS011;38839;45.186;5.720;2023-02-28T16:49:08;10.27;;;7.60;;
52974;SDS011;38839;45.186;5.720;2023-02-28T16:51:36;10.73;;;7.28;;
52974;SDS011;38839;45.186;5.720;2023-02-28T16:54:02;11.15;;;7.32;;
52974;SDS011;38839;45.186;5.720;2023-02-28T16:56:27;11.13;;;7.03;;
52974;SDS011;38839;45.186;5.720;2023-02-28T16:58:52;9.55;;;7.22;;
52974;SDS011;38839;45.186;5.720;2023-02-28T17:03:48;11.23;;;7.57;;
52974;SDS011;38839;45.186;5.720;2023-02-28T17:06:16;10.75;;;7.93;;
52974;SDS011;38839;45.186;5.720;2023-02-28T17:08:44;10.52;;;7.22;;
52974;SDS011;38839;45.186;5.720;2023-02-28T17:11:09;10.23;;;6.75;;
52974;SDS011;38839;45.186;5.720;2023-02-28T17:13:35;10.13;;;6.93;;
52974;SDS011;38839;45.186;5.720;2023-02-28T17:16:00;9.63;;;7.50;;
52974;SDS011;38839;45.186;5.720;2023-02-28T17:18:27;10.20;;;7.45;;
52974;SDS011;38839;45.186;5.720;2023-02-28T17:20:58;11.38;;;7.35;;
52974;SDS011;38839;45.186;5.720;2023-02-28T17:23:24;9.98;;;7.60;;
52974;SDS011;38839;45.186;5.720;2023-02-28T17:25:49;12.25;;;7.25;;
52974;SDS011;38839;45.186;5.720;2023-02-28T17:28:21;11.05;;;7.13;;
52974;SDS011;38839;45.186;5.720;2023-02-28T17:30:47;13.25;;;7.50;;
52974;SDS011;38839;45.186;5.720;2023-02-28T17:33:13;9.65;;;6.60;;
52974;SDS011;38839;45.186;5.720;2023-02-28T17:35:39;11.00;;;7.80;;
52974;SDS011;38839;45.186;5.720;2023-02-28T17:38:04;11.02;;;7.25;;
52974;SDS011;38839;45.186;5.720;2023-02-28T17:40:30;12.82;;;7.85;;
52974;SDS011;38839;45.186;5.720;2023-02-28T17:42:55;10.45;;;7.65;;
52974;SDS011;38839;45.186;5.720;2023-02-28T17:45:21;8.73;;;6.55;;
52974;SDS011;38839;45.186;5.720;2023-02-28T17:47:47;11.68;;;7.10;;
52974;SDS011;38839;45.186;5.720;2023-02-28T17:50:16;11.95;;;7.80;;
52974;SDS011;38839;45.186;5.720;2023-02-28T17:52:44;11.43;;;7.47;;
52974;SDS011;38839;45.186;5.720;2023-02-28T17:55:09;10.88;;;7.82;;
52974;SDS011;38839;45.186;5.720;2023-02-28T17:57:36;12.18;;;7.68;;
52974;SDS011;38839;45.186;5.720;2023-02-28T18:00:02;12.52;;;7.80;;
52974;SDS011;38839;45.186;5.720;2023-02-28T18:02:31;11.27;;;8.20;;
52974;SDS011;38839;45.186;5.720;2023-02-28T18:04:57;10.02;;;7.15;;
52974;SDS011;38839;45.186;5.720;2023-02-28T18:07:23;13.70;;;6.95;;
52974;SDS011;38839;45.186;5.720;2023-02-28T18:09:49;11.32;;;7.78;;
52974;SDS011;38839;45.186;5.720;2023-02-28T18:12:15;12.30;;;8.27;;
52974;SDS011;38839;45.186;5.720;2023-02-28T18:14:40;11.40;;;7.68;;
52974;SDS011;38839;45.186;5.720;2023-02-28T18:17:05;9.60;;;7.47;;
52974;SDS011;38839;45.186;5.720;2023-02-28T18:19:31;10.75;;;7.47;;
52974;SDS011;38839;45.186;5.720;2023-02-28T18:21:56;10.77;;;7.72;;
52974;SDS011;38839;45.186;5.720;2023-02-28T18:24:22;11.05;;;7.55;;
52974;SDS011;38839;45.186;5.720;2023-02-28T18:26:48;10.82;;;7.55;;
52974;SDS011;38839;45.186;5.720;2023-02-28T18:29:16;10.95;;;7.22;;
52974;SDS011;38839;45.186;5.720;2023-02-28T18:31:44;12.07;;;7.47;;
52974;SDS011;38839;45.186;5.720;2023-02-28T18:34:09;13.25;;;7.45;;
52974;SDS011;38839;45.186;5.720;2023-02-28T18:36:35;10.13;;;6.95;;
52974;SDS011;38839;45.186;5.720;2023-02-28T18:39:01;9.73;;;7.28;;
52974;SDS011;38839;45.186;5.720;2023-02-28T18:41:26;9.55;;;6.85;;
52974;SDS011;38839;45.186;5.720;2023-02-28T18:43:52;9.98;;;7.10;;
52974;SDS011;38839;45.186;5.720;2023-02-28T18:46:18;9.82;;;7.07;;
52974;SDS011;38839;45.186;5.720;2023-02-28T18:48:44;10.38;;;6.88;;
52974;SDS011;38839;45.186;5.720;2023-02-28T18:56:06;10.05;;;6.40;;
52974;SDS011;38839;45.186;5.720;2023-02-28T18:58:34;13.77;;;7.43;;
52974;SDS011;38839;45.186;5.720;2023-02-28T19:01:00;8.10;;;6.88;;
52974;SDS011;38839;45.186;5.720;2023-02-28T19:03:27;8.90;;;6.90;;
52974;SDS011;38839;45.186;5.720;2023-02-28T19:05:53;8.23;;;6.28;;
52974;SDS011;38839;45.186;5.720;2023-02-28T19:08:23;13.48;;;7.03;;
52974;SDS011;38839;45.186;5.720;2023-02-28T19:10:49;13.75;;;7.05;;
52974;SDS011;38839;45.186;5.720;2023-02-28T19:13:14;9.95;;;6.75;;
52974;SDS011;38839;45.186;5.720;2023-02-28T19:15:40;9.60;;;6.82;;
52974;SDS011;38839;45.186;5.720;2023-02-28T19:18:06;14.32;;;7.45;;
52974;SDS011;38839;45.186;5.720;2023-02-28T19:20:31;9.23;;;6.55;;
52974;SDS011;38839;45.186;5.720;2023-02-28T19:22:59;9.68;;;7.28;;
52974;SDS011;38839;45.186;5.720;2023-02-28T19:25:25;12.45;;;6.93;;
52974;SDS011;38839;45.186;5.720;2023-02-28T19:27:51;14.00;;;7.72;;
52974;SDS011;38839;45.186;5.720;2023-02-28T19:30:17;10.43;;;6.95;;
52974;SDS011;38839;45.186;5.720;2023-02-28T19:32:43;11.00;;;6.97;;
52974;SDS011;38839;45.186;5.720;2023-02-28T19:35:08;11.90;;;6.50;;
52974;SDS011;38839;45.186;5.720;2023-02-28T19:37:36;11.13;;;6.80;;
52974;SDS011;38839;45.186;5.720;2023-02-28T19:40:03;9.73;;;6.07;;
52974;SDS011;38839;45.186;5.720;2023-02-28T19:42:28;9.68;;;6.53;;
52974;SDS011;38839;45.186;5.720;2023-02-28T19:44:57;13.90;;;6.53;;
52974;SDS011;38839;45.186;5.720;2023-02-28T19:47:23;9.88;;;6.50;;
52974;SDS011;38839;45.186;5.720;2023-02-28T19:49:48;8.38;;;6.50;;
52974;SDS011;38839;45.186;5.720;2023-02-28T19:52:14;10.70;;;6.78;;
52974;SDS011;38839;45.186;5.720;2023-02-28T19:54:40;8.88;;;6.47;;
52974;SDS011;38839;45.186;5.720;2023-02-28T19:57:05;10.23;;;6.70;;
52974;SDS011;38839;45.186;5.720;2023-02-28T19:59:31;9.55;;;6.57;;
52974;SDS011;38839;45.186;5.720;2023-02-28T20:01:56;9.70;;;6.57;;
52974;SDS011;38839;45.186;5.720;2023-02-28T20:04:22;9.98;;;6.93;;
52974;SDS011;38839;45.186;5.720;2023-02-28T20:06:48;8.75;;;6.43;;
52974;SDS011;38839;45.186;5.720;2023-02-28T20:09:14;8.88;;;6.18;;
52974;SDS011;38839;45.186;5.720;2023-02-28T20:11:40;10.13;;;6.32;;
52974;SDS011;38839;45.186;5.720;2023-02-28T20:14:06;10.15;;;6.82;;
52974;SDS011;38839;45.186;5.720;2023-02-28T20:16:31;9.95;;;6.55;;
52974;SDS011;38839;45.186;5.720;2023-02-28T20:18:57;10.48;;;6.63;;
52974;SDS011;38839;45.186;5.720;2023-02-28T20:21:22;11.10;;;7.63;;
52974;SDS011;38839;45.186;5.720;2023-02-28T20:23:48;11.02;;;7.15;;
52974;SDS011;38839;45.186;5.720;2023-02-28T20:26:13;11.15;;;7.32;;
52974;SDS011;38839;45.186;5.720;2023-02-28T20:28:40;10.18;;;6.30;;
52974;SDS011;38839;45.186;5.720;2023-02-28T20:31:14;12.00;;;7.03;;
52974;SDS011;38839;45.186;5.720;2023-02-28T20:33:46;9.30;;;6.57;;
52974;SDS011;38839;45.186;5.720;2023-02-28T20:36:12;10.35;;;7.18;;
52974;SDS011;38839;45.186;5.720;2023-02-28T20:38:39;9.88;;;5.82;;
52974;SDS011;38839;45.186;5.720;2023-02-28T20:41:05;9.73;;;6.57;;
52974;SDS011;38839;45.186;5.720;2023-02-28T20:43:31;7.43;;;5.95;;
52974;SDS011;38839;45.186;5.720;2023-02-28T20:45:57;8.52;;;5.88;;
52974;SDS011;38839;45.186;5.720;2023-02-28T20:48:25;9.52;;;6.40;;
52974;SDS011;38839;45.186;5.720;2023-02-28T20:50:52;8.05;;;6.05;;
52974;SDS011;38839;45.186;5.720;2023-02-28T20:53:19;11.00;;;7.05;;
52974;SDS011;38839;45.186;5.720;2023-02-28T20:58:20;10.40;;;6.60;;
52974;SDS011;38839;45.186;5.720;2023-02-28T21:00:45;12.18;;;7.03;;
52974;SDS011;38839;45.186;5.720;2023-02-28T21:03:11;9.18;;;6.82;;
52974;SDS011;38839;45.186;5.720;2023-02-28T21:05:37;9.80;;;6.80;;
52974;SDS011;38839;45.186;5.720;2023-02-28T21:08:02;8.57;;;6.68;;
52974;SDS011;38839;45.186;5.720;2023-02-28T21:10:28;7.68;;;6.03;;
52974;SDS011;38839;45.186;5.720;2023-02-28T21:12:53;8.77;;;6.50;;
52974;SDS011;38839;45.186;5.720;2023-02-28T21:15:21;8.32;;;6.05;;
52974;SDS011;38839;45.186;5.720;2023-02-28T21:17:50;9.00;;;6.70;;
52974;SDS011;38839;45.186;5.720;2023-02-28T21:20:15;9.23;;;5.95;;
52974;SDS011;38839;45.186;5.720;2023-02-28T21:22:48;11.23;;;6.90;;
52974;SDS011;38839;45.186;5.720;2023-02-28T21:25:14;9.25;;;6.90;;
52974;SDS011;38839;45.186;5.720;2023-02-28T21:27:40;12.23;;;6.63;;
52974;SDS011;38839;45.186;5.720;2023-02-28T21:30:06;9.75;;;5.97;;
52974;SDS011;38839;45.186;5.720;2023-02-28T21:32:32;10.45;;;6.65;;
52974;SDS011;38839;45.186;5.720;2023-02-28T21:34:58;8.25;;;6.18;;
52974;SDS011;38839;45.186;5.720;2023-02-28T21:37:23;9.20;;;6.25;;
52974;SDS011;38839;45.186;5.720;2023-02-28T21:39:49;9.02;;;6.43;;
52974;SDS011;38839;45.186;5.720;2023-02-28T21:42:14;10.57;;;6.85;;
52974;SDS011;38839;45.186;5.720;2023-02-28T21:44:40;10.27;;;6.88;;
52974;SDS011;38839;45.186;5.720;2023-02-28T21:47:05;8.65;;;6.38;;
52974;SDS011;38839;45.186;5.720;2023-02-28T21:49:30;10.18;;;6.82;;
52974;SDS011;38839;45.186;5.720;2023-02-28T21:51:56;10.45;;;6.70;;
52974;SDS011;38839;45.186;5.720;2023-02-28T21:54:21;10.50;;;7.28;;
52974;SDS011;38839;45.186;5.720;2023-02-28T21:56:47;11.00;;;7.35;;
52974;SDS011;38839;45.186;5.720;2023-02-28T21:59:14;10.88;;;6.93;;
52974;SDS011;38839;45.186;5.720;2023-02-28T22:01:41;10.90;;;7.15;;
52974;SDS011;38839;45.186;5.720;2023-02-28T22:04:09;9.30;;;7.05;;
52974;SDS011;38839;45.186;5.720;2023-02-28T22:06:37;11.27;;;7.20;;
52974;SDS011;38839;45.186;5.720;2023-02-28T22:09:04;10.10;;;7.05;;
52974;SDS011;38839;45.186;5.720;2023-02-28T22:11:33;9.45;;;6.20;;
52974;SDS011;38839;45.186;5.720;2023-02-28T22:13:59;9.35;;;6.35;;
52974;SDS011;38839;45.186;5.720;2023-02-28T22:16:26;10.23;;;7.22;;
52974;SDS011;38839;45.186;5.720;2023-02-28T22:18:53;9.32;;;6.50;;
52974;SDS011;38839;45.186;5.720;2023-02-28T22:21:19;9.88;;;6.80;;
52974;SDS011;38839;45.186;5.720;2023-02-28T22:23:45;9.85;;;6.55;;
52974;SDS011;38839;45.186;5.720;2023-02-28T22:26:13;11.32;;;7.88;;
52974;SDS011;38839;45.186;5.720;2023-02-28T22:28:41;9.90;;;6.55;;
52974;SDS011;38839;45.186;5.720;2023-02-28T22:31:13;8.88;;;6.50;;
52974;SDS011;38839;45.186;5.720;2023-02-28T22:33:45;8.77;;;6.50;;
52974;SDS011;38839;45.186;5.720;2023-02-28T22:36:12;10.20;;;7.03;;
52974;SDS011;38839;45.186;5.720;2023-02-28T22:38:40;9.77;;;6.80;;
52974;SDS011;38839;45.186;5.720;2023-02-28T22:41:06;10.60;;;7.40;;
52974;SDS011;38839;45.186;5.720;2023-02-28T22:43:32;12.02;;;7.32;;
52974;SDS011;38839;45.186;5.720;2023-02-28T22:46:02;12.57;;;8.07;;
52974;SDS011;38839;45.186;5.720;2023-02-28T22:48:29;9.90;;;7.28;;
52974;SDS011;38839;45.186;5.720;2023-02-28T22:51:01;17.35;;;7.57;;
52974;SDS011;38839;45.186;5.720;2023-02-28T22:53:33;12.10;;;7.20;;
52974;SDS011;38839;45.186;5.720;2023-02-28T22:55:59;9.93;;;7.28;;
52974;SDS011;38839;45.186;5.720;2023-02-28T22:58:25;9.38;;;6.93;;